Etusivu
METAR-TAF:

METAR-TAF

Lentoasemat :

Røst, Norja

Leveyspiiri: 67-31N, Pituuspiiri: 012-06E, korkeus merenpinnasta: 4 m

Tämänhetkinen sää

Tämä raportti tehtiin 12 tuntia ja 48 minuuttia sitten, kello 12.50 UTC
Tuuli 12 kn kaakosta
Lämpötila 1°C
Kosteus 86%
Ilmanpaine 1017 hPa
Näkyvyys: 6000 m
Hajanaisia pilviä 1200 ft:n korkeudessa
Hajonneita pilviä 1700 ft:n korkeudessa
heikkoja lumikuuroja

METAR: ENRS 171250Z 13012KT 6000 -SHSN SCT012 BKN017 01/M01 Q1017

Aika: 02:38 (01:38 UTC)


TAF: puuttuu

Säähavainnot ja -ennusteet yli 4000 lentoasemalta (METAR- ja TAF-raportit).

Käytössä olevat sääasemat on merkitty karttaan keltaisilla ja punaisilla pisteillä.

Aseta hiiri pisteen päälle nähdäksesi sääaseman nimen.

Klikkaa sitten nähdäksesi säähavainnot ja -ennusteet.

Kartan vaihtaminen: klikkaa mustalla rastilla varustettuja vihreitä pisteitä, niin voit zoomata sisään; viivalla varustettua vihreää pistettä, niin voit zoomata ulos tai vihreitä nuolia, niin pääset viereisille kartoille.


METAR-TAF: